Capt Leroy Devall Inc — WYU9878 — position and weather

sailwx.info

Track history (hours):
 
Tides and Currents Weather Stations Pressure Air Temp Water Temp Dewpoint Dewpoint Depression Visibility Wind Speed Wind Dir Waves Ship Positions

Capt Leroy Devall Inc

Owner: CAPT LEROY DEVALL INC, Sulphur, LA. More information available from US FCC via Universal Licensing System and Coast Guard Vessel Documentation Center.

Last reported at 2017-Oct-19 14:11 UTC. Time now 2017-Oct-20 03:28 UTC.
Position N 30°03' W 093°44'.

Length 20 m; draft 2.5 m.

Type: Towing. MMSI: 366973450.

Date/timePositionNaut miles runAvg speedWind from/ knotsBaromVisibWave heightAir tempDewpointWater temp
2017-Oct-19 14:11N 30°03' W 093°44'1 4.7
2017-Oct-19 14:00N 30°02' W 093°44'1 0.6
2017-Oct-19 12:33N 30°03' W 093°44'0 0.0
2017-Oct-19 00:49N 30°03' W 093°44'12 1.9
2017-Oct-18 18:24N 30°04' W 093°30'2 6.1
2017-Oct-18 18:01N 30°04' W 093°27'3 5.8
2017-Oct-18 17:30N 30°04' W 093°24'2 4.2
2017-Oct-18 17:00N 30°04' W 093°21'0 0.0
2017-Oct-18 16:30N 30°04' W 093°21'0 0.0
2017-Oct-18 16:01N 30°04' W 093°21'0 0.0
2017-Oct-18 15:30N 30°04' W 093°21'1 2.2
2017-Oct-18 15:00N 30°04' W 093°20'3 3.0
2017-Oct-18 14:00N 30°07' W 093°18'1 2.5
2017-Oct-18 13:31N 30°06' W 093°19'3 5.7
2017-Oct-18 13:00N 30°04' W 093°21'0 0.0
2017-Oct-18 12:30N 30°04' W 093°21'0 0.0
2017-Oct-18 12:01N 30°04' W 093°21'0 0.0
2017-Oct-18 11:30N 30°04' W 093°21'0 0.0
2017-Oct-18 11:01N 30°04' W 093°21'0 0.0
2017-Oct-18 10:30N 30°04' W 093°21'0 0.0
2017-Oct-18 10:00N 30°04' W 093°21'0 0.0
2017-Oct-18 09:30N 30°04' W 093°21'0 0.0
2017-Oct-18 09:01N 30°04' W 093°21'0 0.0
2017-Oct-18 08:30N 30°04' W 093°21'0 0.0
2017-Oct-18 08:00N 30°04' W 093°21'0 0.5
2017-Oct-18 07:30N 30°04' W 093°21'2 3.6
2017-Oct-18 07:00N 30°05' W 093°20'3 5.6
2017-Oct-18 06:30N 30°08' W 093°20'3 6.7
2017-Oct-18 06:01N 30°11' W 093°19'3 6.9
2017-Oct-18 05:30N 30°13' W 093°16'3 4.0
2017-Oct-18 04:53N 30°15' W 093°14'1 1.8
2017-Oct-18 04:30N 30°15' W 093°14'1 0.9
2017-Oct-18 02:51N 30°15' W 093°12'0 0.0
2017-Oct-18 01:40N 30°15' W 093°12'0 0.0
2017-Oct-18 01:24N 30°15' W 093°12'1 2.3
2017-Oct-18 01:00N 30°15' W 093°13'2 3.6
2017-Oct-18 00:30N 30°13' W 093°15'2 4.3
2017-Oct-18 00:00N 30°12' W 093°17'3 5.5
2017-Oct-17 23:31N 30°11' W 093°19'3 6.3
2017-Oct-17 23:00N 30°12' W 093°16'1 2.5
2017-Oct-17 22:30N 30°14' W 093°15'3 5.8
2017-Oct-17 22:01N 30°12' W 093°18'3 5.9
2017-Oct-17 21:31N 30°09' W 093°20'3 6.1
2017-Oct-17 21:00N 30°06' W 093°20'1 2.7
2017-Oct-17 20:30N 30°05' W 093°20'0 0.0
2017-Oct-17 20:01N 30°05' W 093°20'2 4.5
2017-Oct-17 19:30N 30°07' W 093°20'2 3.5
2017-Oct-17 19:00N 30°09' W 093°20'2 3.4
2017-Oct-17 18:30N 30°07' W 093°20'2 3.3
2017-Oct-17 18:00N 30°06' W 093°20'1 2.3
2017-Oct-17 17:30N 30°05' W 093°20'1 2.4
2017-Oct-17 17:00N 30°04' W 093°21'0 0.0
2017-Oct-17 16:30N 30°04' W 093°21'0 0.0
2017-Oct-17 16:00N 30°04' W 093°21'0 0.0
2017-Oct-17 15:30N 30°04' W 093°21'0 0.0
2017-Oct-17 15:00N 30°04' W 093°21'0 0.0
2017-Oct-17 14:30N 30°04' W 093°21'0 0.0
2017-Oct-17 14:00N 30°04' W 093°21'0 0.0
2017-Oct-17 13:30N 30°04' W 093°21'0 0.0
2017-Oct-17 13:01N 30°04' W 093°21'0 0.0
2017-Oct-17 12:30N 30°04' W 093°21'0 0.0
2017-Oct-17 12:01N 30°04' W 093°21'0 0.0
2017-Oct-17 11:30N 30°04' W 093°21'0 0.0
2017-Oct-17 11:00N 30°04' W 093°21'0 0.0
2017-Oct-17 10:31N 30°04' W 093°21'0 0.0
2017-Oct-17 10:00N 30°04' W 093°21'0 0.0
2017-Oct-17 09:30N 30°04' W 093°21'0 0.0
2017-Oct-17 09:00N 30°04' W 093°21'0 0.0
2017-Oct-17 08:30N 30°04' W 093°21'0 0.0
2017-Oct-17 08:00N 30°04' W 093°21'0 0.0
2017-Oct-17 07:30N 30°04' W 093°21'0 0.0
2017-Oct-17 07:00N 30°04' W 093°21'0 0.0
2017-Oct-17 06:31N 30°04' W 093°21'2 3.4
2017-Oct-17 06:00N 30°05' W 093°20'0 0.6
2017-Oct-17 05:30N 30°05' W 093°20'1 2.2
2017-Oct-17 05:00N 30°06' W 093°19'1 2.2
2017-Oct-17 04:31N 30°05' W 093°20'2 3.1
2017-Oct-17 04:00N 30°04' W 093°21'0 0.0
2017-Oct-17 03:30N 30°04' W 093°21'0 0.0
2017-Oct-17 03:00N 30°04' W 093°21'1 1.9
2017-Oct-17 02:31N 30°04' W 093°21'2 5.0
2017-Oct-17 02:01N 30°07' W 093°20'3 5.6
2017-Oct-17 01:30N 30°09' W 093°20'3 5.9
2017-Oct-17 01:00N 30°12' W 093°17'2 3.2
2017-Oct-17 00:30N 30°13' W 093°17'3 5.3
2017-Oct-17 00:00N 30°11' W 093°18'2 4.4
2017-Oct-16 23:31N 30°09' W 093°20'0 0.3
2017-Oct-16 23:01N 30°09' W 093°20'2 4.3
2017-Oct-16 22:30N 30°07' W 093°20'2 4.0
2017-Oct-16 22:00N 30°05' W 093°20'2 3.6
2017-Oct-16 21:31N 30°04' W 093°21'0 0.0
2017-Oct-16 21:00N 30°04' W 093°21'0 0.0
2017-Oct-16 20:30N 30°04' W 093°21'0 0.0
2017-Oct-16 20:00N 30°04' W 093°21'0 0.0
2017-Oct-16 19:30N 30°04' W 093°21'0 0.0
2017-Oct-16 19:00N 30°04' W 093°21'0 0.0
2017-Oct-16 18:30N 30°04' W 093°21'0 0.0
2017-Oct-16 18:00N 30°04' W 093°21'0 0.4
2017-Oct-16 17:30N 30°04' W 093°21'1 2.1
2017-Oct-16 17:00N 30°05' W 093°20'1 1.9
2017-Oct-16 16:30N 30°05' W 093°20'2 4.5
2017-Oct-16 16:00N 30°05' W 093°17'0 0.5
2017-Oct-16 15:30N 30°05' W 093°17'0 0.0
2017-Oct-16 15:01N 30°05' W 093°17'1 2.1
2017-Oct-16 14:31N 30°05' W 093°18'4 3.8
2017-Oct-16 13:31N 30°09' W 093°20'1 1.2
2017-Oct-16 13:01N 30°09' W 093°20'0 0.0
2017-Oct-16 12:30N 30°09' W 093°20'0 0.0
2017-Oct-16 12:01N 30°09' W 093°20'0 0.0
2017-Oct-16 11:31N 30°09' W 093°20'0 0.0
2017-Oct-16 11:00N 30°09' W 093°20'0 0.1
2017-Oct-16 10:31N 30°09' W 093°20'3 5.5
2017-Oct-16 10:00N 30°11' W 093°18'2 4.6
2017-Oct-16 09:30N 30°13' W 093°17'0 0.0
2017-Oct-16 09:01N 30°14' W 093°17'1 2.6
2017-Oct-16 08:30N 30°12' W 093°17'2 4.8
2017-Oct-16 08:00N 30°11' W 093°19'2 4.0
2017-Oct-16 07:31N 30°09' W 093°20'2 4.4
2017-Oct-16 07:00N 30°07' W 093°20'2 4.3
2017-Oct-16 06:31N 30°05' W 093°20'1 2.4
2017-Oct-16 06:00N 30°04' W 093°21'0 0.0
2017-Oct-16 05:30N 30°04' W 093°21'0 0.0
2017-Oct-16 05:00N 30°04' W 093°21'0 0.0
2017-Oct-16 04:30N 30°04' W 093°21'0 0.0
2017-Oct-16 04:00N 30°04' W 093°21'0 0.0
2017-Oct-16 03:31N 30°04' W 093°21'0 0.0
2017-Oct-16 03:00N 30°04' W 093°21'0 0.0
2017-Oct-16 02:30N 30°04' W 093°21'0 0.0
2017-Oct-16 02:00N 30°04' W 093°21'0 0.0
2017-Oct-16 01:31N 30°04' W 093°21'0 0.0
2017-Oct-16 01:01N 30°04' W 093°21'0 0.0
2017-Oct-16 00:30N 30°04' W 093°21'0 0.2
2017-Oct-16 00:01N 30°04' W 093°21'0 0.1
2017-Oct-15 23:30N 30°04' W 093°21'0 0.1
2017-Oct-15 23:00N 30°04' W 093°21'0 0.0
2017-Oct-15 22:30N 30°04' W 093°21'0 0.0
2017-Oct-15 22:00N 30°04' W 093°21'0 0.0
2017-Oct-15 21:30N 30°04' W 093°21'0 0.0
2017-Oct-15 21:00N 30°04' W 093°21'0 0.0
2017-Oct-15 20:30N 30°04' W 093°21'0 0.0
2017-Oct-15 20:01N 30°04' W 093°21'0 0.0
2017-Oct-15 19:30N 30°04' W 093°21'0 0.0
2017-Oct-15 19:01N 30°04' W 093°21'0 0.0
2017-Oct-15 18:30N 30°04' W 093°21'0 0.0
2017-Oct-15 18:00N 30°04' W 093°21'0 0.3
2017-Oct-15 17:30N 30°04' W 093°21'2 4.0
2017-Oct-15 17:00N 30°05' W 093°20'3 6.3
2017-Oct-15 16:31N 30°08' W 093°20'2 4.5
2017-Oct-15 16:00N 30°10' W 093°19'0 0.1
2017-Oct-15 15:30N 30°10' W 093°19'0 0.2
2017-Oct-15 15:01N 30°10' W 093°19'4 3.8
2017-Oct-15 14:00N 30°07' W 093°20'3 5.0
2017-Oct-15 13:30N 30°04' W 093°21'1 1.7
2017-Oct-15 13:00N 30°04' W 093°21'0 0.0
2017-Oct-15 12:30N 30°04' W 093°21'0 0.0
2017-Oct-15 12:01N 30°04' W 093°21'0 0.0
2017-Oct-15 11:30N 30°04' W 093°21'0 0.0
2017-Oct-15 11:00N 30°04' W 093°21'0 0.0
2017-Oct-15 10:31N 30°04' W 093°21'0 0.0
2017-Oct-15 10:00N 30°04' W 093°21'0 0.0
2017-Oct-15 09:31N 30°04' W 093°21'0 0.0
2017-Oct-15 09:00N 30°04' W 093°21'0 0.0
2017-Oct-15 08:30N 30°04' W 093°21'1 1.4
2017-Oct-15 08:00N 30°04' W 093°21'3 5.9
2017-Oct-15 07:31N 30°06' W 093°19'0 0.5
2017-Oct-15 07:00N 30°06' W 093°18'0 0.0
2017-Oct-15 06:30N 30°06' W 093°18'0 0.1
2017-Oct-15 06:00N 30°06' W 093°18'0 0.0
2017-Oct-15 05:31N 30°06' W 093°18'0 0.0
2017-Oct-15 05:00N 30°06' W 093°18'0 0.0
2017-Oct-15 04:30N 30°06' W 093°18'2 3.9
2017-Oct-15 04:00N 30°05' W 093°20'3 5.8
2017-Oct-15 03:31N 30°04' W 093°23'0 0.0
2017-Oct-15 03:00N 30°04' W 093°23'1 1.6
2017-Oct-15 02:30N 30°04' W 093°22'0 0.5
2017-Oct-15 02:00N 30°04' W 093°22'0 0.0
2017-Oct-15 01:30N 30°04' W 093°22'0 0.8
2017-Oct-15 01:00N 30°04' W 093°21'2 3.5
2017-Oct-15 00:30N 30°05' W 093°20'0 0.0
2017-Oct-15 00:00N 30°05' W 093°20'0 0.5
2017-Oct-14 23:30N 30°05' W 093°20'2 3.5
2017-Oct-14 23:00N 30°07' W 093°20'3 5.1
2017-Oct-14 22:30N 30°09' W 093°20'2 4.6
2017-Oct-14 22:00N 30°11' W 093°18'2 4.8
2017-Oct-14 21:30N 30°12' W 093°16'2 3.0
2017-Oct-14 21:01N 30°14' W 093°15'0 0.1
2017-Oct-14 20:30N 30°14' W 093°15'0 0.0
2017-Oct-14 20:00N 30°14' W 093°15'0 0.0
2017-Oct-14 19:28N 30°14' W 093°15'0 0.0
2017-Oct-14 18:58N 30°14' W 093°15'0 0.0
2017-Oct-14 18:29N 30°14' W 093°15'0 0.0
2017-Oct-14 17:57N 30°14' W 093°15'0 0.0
2017-Oct-14 14:29N 30°14' W 093°15'0 0.0
2017-Oct-14 13:58N 30°14' W 093°15'0 0.0
2017-Oct-14 13:30N 30°14' W 093°15'0 0.0
2017-Oct-14 12:46N 30°14' W 093°15'0 0.0
2017-Oct-14 12:26N 30°14' W 093°15'0 0.0
2017-Oct-14 11:18N 30°14' W 093°15'0 0.0
2017-Oct-14 11:00N 30°14' W 093°15'0 0.0
2017-Oct-14 06:54N 30°14' W 093°15'0 0.0
2017-Oct-14 06:30N 30°14' W 093°15'0 0.0
2017-Oct-14 05:56N 30°14' W 093°15'0 0.0
2017-Oct-14 05:30N 30°14' W 093°15'0 0.0
2017-Oct-14 05:00N 30°14' W 093°15'0 0.0
2017-Oct-14 04:28N 30°14' W 093°15'0 0.0
2017-Oct-14 04:00N 30°14' W 093°15'0 0.0
2017-Oct-14 03:30N 30°14' W 093°15'0 0.0
2017-Oct-14 03:01N 30°14' W 093°15'0 0.0
2017-Oct-14 02:30N 30°14' W 093°15'0 0.0
2017-Oct-14 01:59N 30°14' W 093°15'0 0.0
2017-Oct-14 01:29N 30°14' W 093°15'0 0.0
2017-Oct-13 23:31N 30°14' W 093°15'0 0.0
2017-Oct-13 23:31N 30°14' W 093°15'0 0.9
2017-Oct-13 23:00N 30°14' W 093°16'2 3.5
2017-Oct-13 22:30N 30°12' W 093°17'3 5.0
2017-Oct-13 22:00N 30°11' W 093°19'2 4.3
2017-Oct-13 21:30N 30°09' W 093°20'3 5.5
2017-Oct-13 21:00N 30°06' W 093°20'2 3.8
2017-Oct-13 20:30N 30°04' W 093°21'1 1.8
2017-Oct-13 20:01N 30°04' W 093°21'0 0.0
2017-Oct-13 19:30N 30°04' W 093°21'0 0.0
2017-Oct-13 19:00N 30°04' W 093°21'0 0.0
2017-Oct-13 18:30N 30°04' W 093°21'0 0.0
2017-Oct-13 18:00N 30°04' W 093°21'0 0.0
2017-Oct-13 17:30N 30°04' W 093°21'0 0.0
2017-Oct-13 17:01N 30°04' W 093°21'1 2.5
2017-Oct-13 16:30N 30°04' W 093°20'3 5.3
2017-Oct-13 16:00N 30°07' W 093°20'2 3.5
2017-Oct-13 15:30N 30°09' W 093°20'2 4.0
2017-Oct-13 15:00N 30°07' W 093°20'2 4.8
2017-Oct-13 14:30N 30°04' W 093°20'1 2.0
2017-Oct-13 14:00N 30°04' W 093°21'2 3.5
2017-Oct-13 13:30N 30°05' W 093°20'0 0.0
2017-Oct-13 13:00N 30°05' W 093°20'0 0.0
2017-Oct-13 12:30N 30°05' W 093°20'0 0.0
2017-Oct-13 12:01N 30°05' W 093°20'0 0.0
2017-Oct-13 11:30N 30°05' W 093°20'0 0.0
2017-Oct-13 11:00N 30°05' W 093°20'0 0.0
2017-Oct-13 10:30N 30°05' W 093°20'0 0.0
2017-Oct-13 10:00N 30°05' W 093°20'0 0.0
2017-Oct-13 09:30N 30°05' W 093°20'0 0.0
2017-Oct-13 09:00N 30°05' W 093°20'0 0.0
2017-Oct-13 08:30N 30°05' W 093°20'0 0.0
2017-Oct-13 08:00N 30°05' W 093°20'0 0.0
2017-Oct-13 07:31N 30°05' W 093°20'0 0.0
2017-Oct-13 07:01N 30°05' W 093°20'0 0.5
2017-Oct-13 06:30N 30°05' W 093°20'2 4.3
2017-Oct-13 06:00N 30°07' W 093°18'1 2.5
2017-Oct-13 05:31N 30°06' W 093°19'3 5.5
2017-Oct-13 05:00N 30°04' W 093°21'0 0.9
2017-Oct-13 04:30N 30°04' W 093°22'0 0.6
2017-Oct-13 04:00N 30°04' W 093°21'0 0.0
2017-Oct-13 03:30N 30°04' W 093°21'0 0.0
2017-Oct-13 03:00N 30°04' W 093°21'0 0.9
2017-Oct-13 02:30N 30°04' W 093°22'0 0.4
2017-Oct-13 02:00N 30°04' W 093°22'0 0.4
2017-Oct-13 01:30N 30°04' W 093°22'0 0.9
2017-Oct-13 01:00N 30°04' W 093°21'0 0.0
2017-Oct-13 00:30N 30°04' W 093°21'0 0.8
2017-Oct-13 00:00N 30°04' W 093°22'0 0.9
2017-Oct-12 23:30N 30°04' W 093°21'3 5.4
2017-Oct-12 23:00N 30°06' W 093°20'3 6.8
2017-Oct-12 22:30N 30°09' W 093°20'3 6.8
2017-Oct-12 22:00N 30°12' W 093°17'2 4.7
2017-Oct-12 21:30N 30°14' W 093°15'0 0.1
2017-Oct-12 21:00N 30°14' W 093°15'0 0.0
2017-Oct-12 20:30N 30°14' W 093°15'1 3.0
2017-Oct-12 20:00N 30°12' W 093°16'3 6.3
2017-Oct-12 19:30N 30°11' W 093°19'3 5.6
2017-Oct-12 19:00N 30°08' W 093°20'3 5.8
2017-Oct-12 18:30N 30°05' W 093°20'2 3.7
2017-Oct-12 18:00N 30°04' W 093°21'0 0.1
2017-Oct-12 17:30N 30°04' W 093°21'1 2.3
2017-Oct-12 17:00N 30°04' W 093°20'3 5.7
2017-Oct-12 16:30N 30°07' W 093°20'3 6.7
2017-Oct-12 16:00N 30°11' W 093°19'3 6.8
2017-Oct-12 15:30N 30°13' W 093°16'1 2.7
2017-Oct-12 15:00N 30°14' W 093°15'2 4.7
2017-Oct-12 14:30N 30°12' W 093°17'2 4.2
2017-Oct-12 14:00N 30°11' W 093°19'3 5.6
2017-Oct-12 13:30N 30°08' W 093°20'3 5.6
2017-Oct-12 13:00N 30°05' W 093°20'0 0.9
2017-Oct-12 12:30N 30°05' W 093°20'2 4.2
2017-Oct-12 12:00N 30°05' W 093°18'1 2.5
2017-Oct-12 11:30N 30°05' W 093°17'0 0.7
2017-Oct-12 11:00N 30°04' W 093°16'0 0.0
2017-Oct-12 10:30N 30°04' W 093°16'0 0.0
2017-Oct-12 10:00N 30°04' W 093°16'0 0.0
2017-Oct-12 09:30N 30°04' W 093°16'0 0.0
2017-Oct-12 09:00N 30°04' W 093°16'0 0.0
2017-Oct-12 08:30N 30°04' W 093°16'0 0.0
2017-Oct-12 08:00N 30°04' W 093°16'0 0.0
2017-Oct-12 07:30N 30°04' W 093°16'1 1.7
2017-Oct-12 07:00N 30°05' W 093°17'1 1.4
2017-Oct-12 06:30N 30°05' W 093°18'1 1.3
2017-Oct-12 06:00N 30°06' W 093°18'0 0.0
2017-Oct-12 05:30N 30°06' W 093°18'0 0.5
2017-Oct-12 05:00N 30°06' W 093°18'3 6.0
2017-Oct-12 04:30N 30°04' W 093°21'0 0.5
2017-Oct-12 04:00N 30°04' W 093°21'3 6.7
2017-Oct-12 03:30N 30°07' W 093°20'4 7.3
2017-Oct-12 03:00N 30°11' W 093°19'4 7.5
2017-Oct-12 02:30N 30°13' W 093°16'1 2.0
2017-Oct-12 02:00N 30°14' W 093°15'0 0.0
2017-Oct-12 01:30N 30°14' W 093°15'0 0.0
2017-Oct-12 01:00N 30°14' W 093°15'2 5.0
2017-Oct-12 00:30N 30°12' W 093°17'3 6.3
2017-Oct-12 00:00N 30°10' W 093°19'3 6.8
2017-Oct-11 23:30N 30°06' W 093°20'3 6.2
2017-Oct-11 23:00N 30°04' W 093°22'0 0.8
2017-Oct-11 22:30N 30°04' W 093°21'0 0.0
2017-Oct-11 22:00N 30°04' W 093°21'0 0.0
2017-Oct-11 21:30N 30°04' W 093°21'0 0.0
2017-Oct-11 21:00N 30°04' W 093°21'0 0.0
2017-Oct-11 20:30N 30°04' W 093°21'0 0.1
2017-Oct-11 20:00N 30°04' W 093°21'0 0.1
2017-Oct-11 19:30N 30°04' W 093°21'0 0.9
2017-Oct-11 19:00N 30°04' W 093°22'0 0.8
2017-Oct-11 18:30N 30°04' W 093°21'0 0.1
2017-Oct-11 18:00N 30°04' W 093°21'0 0.1
2017-Oct-11 17:30N 30°04' W 093°21'0 0.8
2017-Oct-11 17:00N 30°04' W 093°22'4 0.2
2017-Oct-11 00:00N 30°06' W 093°18'2 4.5
2017-Oct-10 23:30N 30°04' W 093°20'2 4.7
2017-Oct-10 23:00N 30°07' W 093°20'1 1.4
2017-Oct-10 22:30N 30°06' W 093°20'1 2.8
2017-Oct-10 22:00N 30°05' W 093°20'2 3.6
2017-Oct-10 21:30N 30°04' W 093°21'0 0.6
2017-Oct-10 21:00N 30°04' W 093°22'0 0.1
2017-Oct-10 20:30N 30°04' W 093°21'1 2.4
2017-Oct-10 20:00N 30°04' W 093°20'1 2.9
2017-Oct-10 19:30N 30°06' W 093°20'4 7.5
2017-Oct-10 19:00N 30°09' W 093°20'4 7.2
2017-Oct-10 18:30N 30°12' W 093°17'3 5.3
2017-Oct-10 18:00N 30°14' W 093°15'2 3.4
2017-Oct-10 17:30N 30°15' W 093°13'1 2.2
2017-Oct-10 17:00N 30°15' W 093°12'1 1.7
2017-Oct-10 16:30N 30°15' W 093°13'2 3.1
2017-Oct-10 16:00N 30°15' W 093°14'2 4.3
2017-Oct-10 15:30N 30°13' W 093°15'3 5.8
2017-Oct-10 15:00N 30°11' W 093°18'6 5.6
2017-Oct-10 14:00N 30°06' W 093°20'3 5.9
2017-Oct-10 13:30N 30°04' W 093°21'0 0.7
2017-Oct-10 13:00N 30°04' W 093°22'0 0.0
2017-Oct-10 12:30N 30°04' W 093°22'0 0.0
2017-Oct-10 12:00N 30°04' W 093°22'0 0.0
2017-Oct-10 11:30N 30°04' W 093°22'0 0.0
2017-Oct-10 11:00N 30°04' W 093°22'0 0.0
2017-Oct-10 10:31N 30°04' W 093°22'0 0.0
2017-Oct-10 10:01N 30°04' W 093°22'0 0.0
2017-Oct-10 09:31N 30°04' W 093°22'0 0.0
2017-Oct-10 09:01N 30°04' W 093°22'0 0.0
2017-Oct-10 08:31N 30°04' W 093°22'0 0.0
2017-Oct-10 08:00N 30°04' W 093°22'0 0.0
2017-Oct-10 07:30N 30°04' W 093°22'0 0.0
2017-Oct-10 07:01N 30°04' W 093°22'0 0.3
2017-Oct-10 06:30N 30°04' W 093°22'1 1.1
2017-Oct-10 06:01N 30°04' W 093°21'0 0.1
2017-Oct-10 05:31N 30°04' W 093°21'0 0.0
2017-Oct-10 05:01N 30°04' W 093°21'0 0.0
2017-Oct-10 04:30N 30°04' W 093°21'0 0.0
2017-Oct-10 04:00N 30°04' W 093°21'0 0.0
2017-Oct-10 03:31N 30°04' W 093°21'0 0.2
2017-Oct-10 03:01N 30°04' W 093°21'0 0.3
2017-Oct-10 02:31N 30°04' W 093°21'0 0.5
2017-Oct-10 02:01N 30°04' W 093°21'0 0.0
2017-Oct-10 01:31N 30°04' W 093°21'0 0.0
2017-Oct-10 01:00N 30°04' W 093°21'0 0.0
2017-Oct-10 00:31N 30°04' W 093°21'0 0.0
2017-Oct-10 00:01N 30°04' W 093°21'0 0.0
2017-Oct-09 23:31N 30°04' W 093°21'0 0.0
2017-Oct-09 23:01N 30°04' W 093°21'0 0.0
2017-Oct-09 22:31N 30°04' W 093°21'0 0.9
2017-Oct-09 22:01N 30°04' W 093°22'0 0.0
2017-Oct-09 21:30N 30°04' W 093°22'0 0.0
2017-Oct-09 21:01N 30°04' W 093°22'0 0.0
2017-Oct-09 20:31N 30°04' W 093°22'0 0.0
2017-Oct-09 20:01N 30°04' W 093°22'0 0.9
2017-Oct-09 19:31N 30°04' W 093°21'0 0.1
2017-Oct-09 19:01N 30°04' W 093°21'0 0.0
2017-Oct-09 18:31N 30°04' W 093°21'0 0.0
2017-Oct-09 18:01N 30°04' W 093°21'0 0.0
2017-Oct-09 17:31N 30°04' W 093°21'0 0.1
2017-Oct-09 17:01N 30°04' W 093°21'0 0.1
2017-Oct-09 16:30N 30°04' W 093°21'0 0.0
2017-Oct-09 16:01N 30°04' W 093°21'0 0.0
2017-Oct-09 15:31N 30°04' W 093°21'0 0.0
2017-Oct-09 15:01N 30°04' W 093°21'0 0.0
2017-Oct-09 14:31N 30°04' W 093°21'  
Track history (hours):
 
Tides and Currents Weather Stations Pressure Air Temp Water Temp Dewpoint Dewpoint Depression Visibility Wind Speed Wind Dir Waves Ship Positions

Capt Leroy Devall Inc

Owner: CAPT LEROY DEVALL INC, Sulphur, LA. More information available from US FCC via Universal Licensing System and Coast Guard Vessel Documentation Center.

Last reported at 2017-Oct-19 14:11 UTC. Time now 2017-Oct-20 03:28 UTC.
Position N 30°03' W 093°44'.

Length 20 m; draft 2.5 m.

Type: Towing. MMSI: 366973450.

Date/timePositionNaut miles runAvg speedWind from/ knotsBaromVisibWave heightAir tempDewpointWater temp
2017-Oct-19 14:11N 30°03' W 093°44'1 4.7
2017-Oct-19 14:00N 30°02' W 093°44'1 0.6
2017-Oct-19 12:33N 30°03' W 093°44'0 0.0
2017-Oct-19 00:49N 30°03' W 093°44'12 1.9
2017-Oct-18 18:24N 30°04' W 093°30'2 6.1
2017-Oct-18 18:01N 30°04' W 093°27'3 5.8
2017-Oct-18 17:30N 30°04' W 093°24'2 4.2
2017-Oct-18 17:00N 30°04' W 093°21'0 0.0
2017-Oct-18 16:30N 30°04' W 093°21'0 0.0
2017-Oct-18 16:01N 30°04' W 093°21'0 0.0
2017-Oct-18 15:30N 30°04' W 093°21'1 2.2
2017-Oct-18 15:00N 30°04' W 093°20'3 3.0
2017-Oct-18 14:00N 30°07' W 093°18'1 2.5
2017-Oct-18 13:31N 30°06' W 093°19'3 5.7
2017-Oct-18 13:00N 30°04' W 093°21'0 0.0
2017-Oct-18 12:30N 30°04' W 093°21'0 0.0
2017-Oct-18 12:01N 30°04' W 093°21'0 0.0
2017-Oct-18 11:30N 30°04' W 093°21'0 0.0
2017-Oct-18 11:01N 30°04' W 093°21'0 0.0
2017-Oct-18 10:30N 30°04' W 093°21'0 0.0
2017-Oct-18 10:00N 30°04' W 093°21'0 0.0
2017-Oct-18 09:30N 30°04' W 093°21'0 0.0
2017-Oct-18 09:01N 30°04' W 093°21'0 0.0
2017-Oct-18 08:30N 30°04' W 093°21'0 0.0
2017-Oct-18 08:00N 30°04' W 093°21'0 0.5
2017-Oct-18 07:30N 30°04' W 093°21'2 3.6
2017-Oct-18 07:00N 30°05' W 093°20'3 5.6
2017-Oct-18 06:30N 30°08' W 093°20'3 6.7
2017-Oct-18 06:01N 30°11' W 093°19'3 6.9
2017-Oct-18 05:30N 30°13' W 093°16'3 4.0
2017-Oct-18 04:53N 30°15' W 093°14'1 1.8
2017-Oct-18 04:30N 30°15' W 093°14'1 0.9
2017-Oct-18 02:51N 30°15' W 093°12'0 0.0
2017-Oct-18 01:40N 30°15' W 093°12'0 0.0
2017-Oct-18 01:24N 30°15' W 093°12'1 2.3
2017-Oct-18 01:00N 30°15' W 093°13'2 3.6
2017-Oct-18 00:30N 30°13' W 093°15'2 4.3
2017-Oct-18 00:00N 30°12' W 093°17'3 5.5
2017-Oct-17 23:31N 30°11' W 093°19'3 6.3
2017-Oct-17 23:00N 30°12' W 093°16'1 2.5
2017-Oct-17 22:30N 30°14' W 093°15'3 5.8
2017-Oct-17 22:01N 30°12' W 093°18'3 5.9
2017-Oct-17 21:31N 30°09' W 093°20'3 6.1
2017-Oct-17 21:00N 30°06' W 093°20'1 2.7
2017-Oct-17 20:30N 30°05' W 093°20'0 0.0
2017-Oct-17 20:01N 30°05' W 093°20'2 4.5
2017-Oct-17 19:30N 30°07' W 093°20'2 3.5
2017-Oct-17 19:00N 30°09' W 093°20'2 3.4
2017-Oct-17 18:30N 30°07' W 093°20'2 3.3
2017-Oct-17 18:00N 30°06' W 093°20'1 2.3
2017-Oct-17 17:30N 30°05' W 093°20'1 2.4
2017-Oct-17 17:00N 30°04' W 093°21'0 0.0
2017-Oct-17 16:30N 30°04' W 093°21'0 0.0
2017-Oct-17 16:00N 30°04' W 093°21'0 0.0
2017-Oct-17 15:30N 30°04' W 093°21'0 0.0
2017-Oct-17 15:00N 30°04' W 093°21'0 0.0
2017-Oct-17 14:30N 30°04' W 093°21'0 0.0
2017-Oct-17 14:00N 30°04' W 093°21'0 0.0
2017-Oct-17 13:30N 30°04' W 093°21'0 0.0
2017-Oct-17 13:01N 30°04' W 093°21'0 0.0
2017-Oct-17 12:30N 30°04' W 093°21'0 0.0
2017-Oct-17 12:01N 30°04' W 093°21'0 0.0
2017-Oct-17 11:30N 30°04' W 093°21'0 0.0
2017-Oct-17 11:00N 30°04' W 093°21'0 0.0
2017-Oct-17 10:31N 30°04' W 093°21'0 0.0
2017-Oct-17 10:00N 30°04' W 093°21'0 0.0
2017-Oct-17 09:30N 30°04' W 093°21'0 0.0
2017-Oct-17 09:00N 30°04' W 093°21'0 0.0
2017-Oct-17 08:30N 30°04' W 093°21'0 0.0
2017-Oct-17 08:00N 30°04' W 093°21'0 0.0
2017-Oct-17 07:30N 30°04' W 093°21'0 0.0
2017-Oct-17 07:00N 30°04' W 093°21'0 0.0
2017-Oct-17 06:31N 30°04' W 093°21'2 3.4
2017-Oct-17 06:00N 30°05' W 093°20'0 0.6
2017-Oct-17 05:30N 30°05' W 093°20'1 2.2
2017-Oct-17 05:00N 30°06' W 093°19'1 2.2
2017-Oct-17 04:31N 30°05' W 093°20'2 3.1
2017-Oct-17 04:00N 30°04' W 093°21'0 0.0
2017-Oct-17 03:30N 30°04' W 093°21'0 0.0
2017-Oct-17 03:00N 30°04' W 093°21'1 1.9
2017-Oct-17 02:31N 30°04' W 093°21'2 5.0
2017-Oct-17 02:01N 30°07' W 093°20'3 5.6
2017-Oct-17 01:30N 30°09' W 093°20'3 5.9
2017-Oct-17 01:00N 30°12' W 093°17'2 3.2
2017-Oct-17 00:30N 30°13' W 093°17'3 5.3
2017-Oct-17 00:00N 30°11' W 093°18'2 4.4
2017-Oct-16 23:31N 30°09' W 093°20'0 0.3
2017-Oct-16 23:01N 30°09' W 093°20'2 4.3
2017-Oct-16 22:30N 30°07' W 093°20'2 4.0
2017-Oct-16 22:00N 30°05' W 093°20'2 3.6
2017-Oct-16 21:31N 30°04' W 093°21'0 0.0
2017-Oct-16 21:00N 30°04' W 093°21'0 0.0
2017-Oct-16 20:30N 30°04' W 093°21'0 0.0
2017-Oct-16 20:00N 30°04' W 093°21'0 0.0
2017-Oct-16 19:30N 30°04' W 093°21'0 0.0
2017-Oct-16 19:00N 30°04' W 093°21'0 0.0
2017-Oct-16 18:30N 30°04' W 093°21'0 0.0
2017-Oct-16 18:00N 30°04' W 093°21'0 0.4
2017-Oct-16 17:30N 30°04' W 093°21'1 2.1
2017-Oct-16 17:00N 30°05' W 093°20'1 1.9
2017-Oct-16 16:30N 30°05' W 093°20'2 4.5
2017-Oct-16 16:00N 30°05' W 093°17'0 0.5
2017-Oct-16 15:30N 30°05' W 093°17'0 0.0
2017-Oct-16 15:01N 30°05' W 093°17'1 2.1
2017-Oct-16 14:31N 30°05' W 093°18'4 3.8
2017-Oct-16 13:31N 30°09' W 093°20'1 1.2
2017-Oct-16 13:01N 30°09' W 093°20'0 0.0
2017-Oct-16 12:30N 30°09' W 093°20'0 0.0
2017-Oct-16 12:01N 30°09' W 093°20'0 0.0
2017-Oct-16 11:31N 30°09' W 093°20'0 0.0
2017-Oct-16 11:00N 30°09' W 093°20'0 0.1
2017-Oct-16 10:31N 30°09' W 093°20'3 5.5
2017-Oct-16 10:00N 30°11' W 093°18'2 4.6
2017-Oct-16 09:30N 30°13' W 093°17'0 0.0
2017-Oct-16 09:01N 30°14' W 093°17'1 2.6
2017-Oct-16 08:30N 30°12' W 093°17'2 4.8
2017-Oct-16 08:00N 30°11' W 093°19'2 4.0
2017-Oct-16 07:31N 30°09' W 093°20'2 4.4
2017-Oct-16 07:00N 30°07' W 093°20'2 4.3
2017-Oct-16 06:31N 30°05' W 093°20'1 2.4
2017-Oct-16 06:00N 30°04' W 093°21'0 0.0
2017-Oct-16 05:30N 30°04' W 093°21'0 0.0
2017-Oct-16 05:00N 30°04' W 093°21'0 0.0
2017-Oct-16 04:30N 30°04' W 093°21'0 0.0
2017-Oct-16 04:00N 30°04' W 093°21'0 0.0
2017-Oct-16 03:31N 30°04' W 093°21'0 0.0
2017-Oct-16 03:00N 30°04' W 093°21'0 0.0
2017-Oct-16 02:30N 30°04' W 093°21'0 0.0
2017-Oct-16 02:00N 30°04' W 093°21'0 0.0
2017-Oct-16 01:31N 30°04' W 093°21'0 0.0
2017-Oct-16 01:01N 30°04' W 093°21'0 0.0
2017-Oct-16 00:30N 30°04' W 093°21'0 0.2
2017-Oct-16 00:01N 30°04' W 093°21'0 0.1
2017-Oct-15 23:30N 30°04' W 093°21'0 0.1
2017-Oct-15 23:00N 30°04' W 093°21'0 0.0
2017-Oct-15 22:30N 30°04' W 093°21'0 0.0
2017-Oct-15 22:00N 30°04' W 093°21'0 0.0
2017-Oct-15 21:30N 30°04' W 093°21'0 0.0
2017-Oct-15 21:00N 30°04' W 093°21'0 0.0
2017-Oct-15 20:30N 30°04' W 093°21'0 0.0
2017-Oct-15 20:01N 30°04' W 093°21'0 0.0
2017-Oct-15 19:30N 30°04' W 093°21'0 0.0
2017-Oct-15 19:01N 30°04' W 093°21'0 0.0
2017-Oct-15 18:30N 30°04' W 093°21'0 0.0
2017-Oct-15 18:00N 30°04' W 093°21'0 0.3
2017-Oct-15 17:30N 30°04' W 093°21'2 4.0
2017-Oct-15 17:00N 30°05' W 093°20'3 6.3
2017-Oct-15 16:31N 30°08' W 093°20'2 4.5
2017-Oct-15 16:00N 30°10' W 093°19'0 0.1
2017-Oct-15 15:30N 30°10' W 093°19'0 0.2
2017-Oct-15 15:01N 30°10' W 093°19'4 3.8
2017-Oct-15 14:00N 30°07' W 093°20'3 5.0
2017-Oct-15 13:30N 30°04' W 093°21'1 1.7
2017-Oct-15 13:00N 30°04' W 093°21'0 0.0
2017-Oct-15 12:30N 30°04' W 093°21'0 0.0
2017-Oct-15 12:01N 30°04' W 093°21'0 0.0
2017-Oct-15 11:30N 30°04' W 093°21'0 0.0
2017-Oct-15 11:00N 30°04' W 093°21'0 0.0
2017-Oct-15 10:31N 30°04' W 093°21'0 0.0
2017-Oct-15 10:00N 30°04' W 093°21'0 0.0
2017-Oct-15 09:31N 30°04' W 093°21'0 0.0
2017-Oct-15 09:00N 30°04' W 093°21'0 0.0
2017-Oct-15 08:30N 30°04' W 093°21'1 1.4
2017-Oct-15 08:00N 30°04' W 093°21'3 5.9
2017-Oct-15 07:31N 30°06' W 093°19'0 0.5
2017-Oct-15 07:00N 30°06' W 093°18'0 0.0
2017-Oct-15 06:30N 30°06' W 093°18'0 0.1
2017-Oct-15 06:00N 30°06' W 093°18'0 0.0
2017-Oct-15 05:31N 30°06' W 093°18'0 0.0
2017-Oct-15 05:00N 30°06' W 093°18'0 0.0
2017-Oct-15 04:30N 30°06' W 093°18'2 3.9
2017-Oct-15 04:00N 30°05' W 093°20'3 5.8
2017-Oct-15 03:31N 30°04' W 093°23'0 0.0
2017-Oct-15 03:00N 30°04' W 093°23'1 1.6
2017-Oct-15 02:30N 30°04' W 093°22'0 0.5
2017-Oct-15 02:00N 30°04' W 093°22'0 0.0
2017-Oct-15 01:30N 30°04' W 093°22'0 0.8
2017-Oct-15 01:00N 30°04' W 093°21'2 3.5
2017-Oct-15 00:30N 30°05' W 093°20'0 0.0
2017-Oct-15 00:00N 30°05' W 093°20'0 0.5
2017-Oct-14 23:30N 30°05' W 093°20'2 3.5
2017-Oct-14 23:00N 30°07' W 093°20'3 5.1
2017-Oct-14 22:30N 30°09' W 093°20'2 4.6
2017-Oct-14 22:00N 30°11' W 093°18'2 4.8
2017-Oct-14 21:30N 30°12' W 093°16'2 3.0
2017-Oct-14 21:01N 30°14' W 093°15'0 0.1
2017-Oct-14 20:30N 30°14' W 093°15'0 0.0
2017-Oct-14 20:00N 30°14' W 093°15'0 0.0
2017-Oct-14 19:28N 30°14' W 093°15'0 0.0
2017-Oct-14 18:58N 30°14' W 093°15'0 0.0
2017-Oct-14 18:29N 30°14' W 093°15'0 0.0
2017-Oct-14 17:57N 30°14' W 093°15'0 0.0
2017-Oct-14 14:29N 30°14' W 093°15'0 0.0
2017-Oct-14 13:58N 30°14' W 093°15'0 0.0
2017-Oct-14 13:30N 30°14' W 093°15'0 0.0
2017-Oct-14 12:46N 30°14' W 093°15'0 0.0
2017-Oct-14 12:26N 30°14' W 093°15'0 0.0
2017-Oct-14 11:18N 30°14' W 093°15'0 0.0
2017-Oct-14 11:00N 30°14' W 093°15'0 0.0
2017-Oct-14 06:54N 30°14' W 093°15'0 0.0
2017-Oct-14 06:30N 30°14' W 093°15'0 0.0
2017-Oct-14 05:56N 30°14' W 093°15'0 0.0
2017-Oct-14 05:30N 30°14' W 093°15'0 0.0
2017-Oct-14 05:00N 30°14' W 093°15'0 0.0
2017-Oct-14 04:28N 30°14' W 093°15'0 0.0
2017-Oct-14 04:00N 30°14' W 093°15'0 0.0
2017-Oct-14 03:30N 30°14' W 093°15'0 0.0
2017-Oct-14 03:01N 30°14' W 093°15'0 0.0
2017-Oct-14 02:30N 30°14' W 093°15'0 0.0
2017-Oct-14 01:59N 30°14' W 093°15'0 0.0
2017-Oct-14 01:29N 30°14' W 093°15'0 0.0
2017-Oct-13 23:31N 30°14' W 093°15'0 0.0
2017-Oct-13 23:31N 30°14' W 093°15'0 0.9
2017-Oct-13 23:00N 30°14' W 093°16'2 3.5
2017-Oct-13 22:30N 30°12' W 093°17'3 5.0
2017-Oct-13 22:00N 30°11' W 093°19'2 4.3
2017-Oct-13 21:30N 30°09' W 093°20'3 5.5
2017-Oct-13 21:00N 30°06' W 093°20'2 3.8
2017-Oct-13 20:30N 30°04' W 093°21'1 1.8
2017-Oct-13 20:01N 30°04' W 093°21'0 0.0
2017-Oct-13 19:30N 30°04' W 093°21'0 0.0
2017-Oct-13 19:00N 30°04' W 093°21'0 0.0
2017-Oct-13 18:30N 30°04' W 093°21'0 0.0
2017-Oct-13 18:00N 30°04' W 093°21'0 0.0
2017-Oct-13 17:30N 30°04' W 093°21'0 0.0
2017-Oct-13 17:01N 30°04' W 093°21'1 2.5
2017-Oct-13 16:30N 30°04' W 093°20'3 5.3
2017-Oct-13 16:00N 30°07' W 093°20'2 3.5
2017-Oct-13 15:30N 30°09' W 093°20'2 4.0
2017-Oct-13 15:00N 30°07' W 093°20'2 4.8
2017-Oct-13 14:30N 30°04' W 093°20'1 2.0
2017-Oct-13 14:00N 30°04' W 093°21'2 3.5
2017-Oct-13 13:30N 30°05' W 093°20'0 0.0
2017-Oct-13 13:00N 30°05' W 093°20'0 0.0
2017-Oct-13 12:30N 30°05' W 093°20'0 0.0
2017-Oct-13 12:01N 30°05' W 093°20'0 0.0
2017-Oct-13 11:30N 30°05' W 093°20'0 0.0
2017-Oct-13 11:00N 30°05' W 093°20'0 0.0
2017-Oct-13 10:30N 30°05' W 093°20'0 0.0
2017-Oct-13 10:00N 30°05' W 093°20'0 0.0
2017-Oct-13 09:30N 30°05' W 093°20'0 0.0
2017-Oct-13 09:00N 30°05' W 093°20'0 0.0
2017-Oct-13 08:30N 30°05' W 093°20'0 0.0
2017-Oct-13 08:00N 30°05' W 093°20'0 0.0
2017-Oct-13 07:31N 30°05' W 093°20'0 0.0
2017-Oct-13 07:01N 30°05' W 093°20'0 0.5
2017-Oct-13 06:30N 30°05' W 093°20'2 4.3
2017-Oct-13 06:00N 30°07' W 093°18'1 2.5
2017-Oct-13 05:31N 30°06' W 093°19'3 5.5
2017-Oct-13 05:00N 30°04' W 093°21'0 0.9
2017-Oct-13 04:30N 30°04' W 093°22'0 0.6
2017-Oct-13 04:00N 30°04' W 093°21'0 0.0
2017-Oct-13 03:30N 30°04' W 093°21'0 0.0
2017-Oct-13 03:00N 30°04' W 093°21'0 0.9
2017-Oct-13 02:30N 30°04' W 093°22'0 0.4
2017-Oct-13 02:00N 30°04' W 093°22'0 0.4
2017-Oct-13 01:30N 30°04' W 093°22'0 0.9
2017-Oct-13 01:00N 30°04' W 093°21'0 0.0
2017-Oct-13 00:30N 30°04' W 093°21'0 0.8
2017-Oct-13 00:00N 30°04' W 093°22'0 0.9
2017-Oct-12 23:30N 30°04' W 093°21'3 5.4
2017-Oct-12 23:00N 30°06' W 093°20'3 6.8
2017-Oct-12 22:30N 30°09' W 093°20'3 6.8
2017-Oct-12 22:00N 30°12' W 093°17'2 4.7
2017-Oct-12 21:30N 30°14' W 093°15'0 0.1
2017-Oct-12 21:00N 30°14' W 093°15'0 0.0
2017-Oct-12 20:30N 30°14' W 093°15'1 3.0
2017-Oct-12 20:00N 30°12' W 093°16'3 6.3
2017-Oct-12 19:30N 30°11' W 093°19'3 5.6
2017-Oct-12 19:00N 30°08' W 093°20'3 5.8
2017-Oct-12 18:30N 30°05' W 093°20'2 3.7
2017-Oct-12 18:00N 30°04' W 093°21'0 0.1
2017-Oct-12 17:30N 30°04' W 093°21'1 2.3
2017-Oct-12 17:00N 30°04' W 093°20'3 5.7
2017-Oct-12 16:30N 30°07' W 093°20'3 6.7
2017-Oct-12 16:00N 30°11' W 093°19'3 6.8
2017-Oct-12 15:30N 30°13' W 093°16'1 2.7
2017-Oct-12 15:00N 30°14' W 093°15'2 4.7
2017-Oct-12 14:30N 30°12' W 093°17'2 4.2
2017-Oct-12 14:00N 30°11' W 093°19'3 5.6
2017-Oct-12 13:30N 30°08' W 093°20'3 5.6
2017-Oct-12 13:00N 30°05' W 093°20'0 0.9
2017-Oct-12 12:30N 30°05' W 093°20'2 4.2
2017-Oct-12 12:00N 30°05' W 093°18'1 2.5
2017-Oct-12 11:30N 30°05' W 093°17'0 0.7
2017-Oct-12 11:00N 30°04' W 093°16'0 0.0
2017-Oct-12 10:30N 30°04' W 093°16'0 0.0
2017-Oct-12 10:00N 30°04' W 093°16'0 0.0
2017-Oct-12 09:30N 30°04' W 093°16'0 0.0
2017-Oct-12 09:00N 30°04' W 093°16'0 0.0
2017-Oct-12 08:30N 30°04' W 093°16'0 0.0
2017-Oct-12 08:00N 30°04' W 093°16'0 0.0
2017-Oct-12 07:30N 30°04' W 093°16'1 1.7
2017-Oct-12 07:00N 30°05' W 093°17'1 1.4
2017-Oct-12 06:30N 30°05' W 093°18'1 1.3
2017-Oct-12 06:00N 30°06' W 093°18'0 0.0
2017-Oct-12 05:30N 30°06' W 093°18'0 0.5
2017-Oct-12 05:00N 30°06' W 093°18'3 6.0
2017-Oct-12 04:30N 30°04' W 093°21'0 0.5
2017-Oct-12 04:00N 30°04' W 093°21'3 6.7
2017-Oct-12 03:30N 30°07' W 093°20'4 7.3
2017-Oct-12 03:00N 30°11' W 093°19'4 7.5
2017-Oct-12 02:30N 30°13' W 093°16'1 2.0
2017-Oct-12 02:00N 30°14' W 093°15'0 0.0
2017-Oct-12 01:30N 30°14' W 093°15'0 0.0
2017-Oct-12 01:00N 30°14' W 093°15'2 5.0
2017-Oct-12 00:30N 30°12' W 093°17'3 6.3
2017-Oct-12 00:00N 30°10' W 093°19'3 6.8
2017-Oct-11 23:30N 30°06' W 093°20'3 6.2
2017-Oct-11 23:00N 30°04' W 093°22'0 0.8
2017-Oct-11 22:30N 30°04' W 093°21'0 0.0
2017-Oct-11 22:00N 30°04' W 093°21'0 0.0
2017-Oct-11 21:30N 30°04' W 093°21'0 0.0
2017-Oct-11 21:00N 30°04' W 093°21'0 0.0
2017-Oct-11 20:30N 30°04' W 093°21'0 0.1
2017-Oct-11 20:00N 30°04' W 093°21'0 0.1
2017-Oct-11 19:30N 30°04' W 093°21'0 0.9
2017-Oct-11 19:00N 30°04' W 093°22'0 0.8
2017-Oct-11 18:30N 30°04' W 093°21'0 0.1
2017-Oct-11 18:00N 30°04' W 093°21'0 0.1
2017-Oct-11 17:30N 30°04' W 093°21'0 0.8
2017-Oct-11 17:00N 30°04' W 093°22'4 0.2
2017-Oct-11 00:00N 30°06' W 093°18'2 4.5
2017-Oct-10 23:30N 30°04' W 093°20'2 4.7
2017-Oct-10 23:00N 30°07' W 093°20'1 1.4
2017-Oct-10 22:30N 30°06' W 093°20'1 2.8
2017-Oct-10 22:00N 30°05' W 093°20'2 3.6
2017-Oct-10 21:30N 30°04' W 093°21'0 0.6
2017-Oct-10 21:00N 30°04' W 093°22'0 0.1
2017-Oct-10 20:30N 30°04' W 093°21'1 2.4
2017-Oct-10 20:00N 30°04' W 093°20'1 2.9
2017-Oct-10 19:30N 30°06' W 093°20'4 7.5
2017-Oct-10 19:00N 30°09' W 093°20'4 7.2
2017-Oct-10 18:30N 30°12' W 093°17'3 5.3
2017-Oct-10 18:00N 30°14' W 093°15'2 3.4
2017-Oct-10 17:30N 30°15' W 093°13'1 2.2
2017-Oct-10 17:00N 30°15' W 093°12'1 1.7
2017-Oct-10 16:30N 30°15' W 093°13'2 3.1
2017-Oct-10 16:00N 30°15' W 093°14'2 4.3
2017-Oct-10 15:30N 30°13' W 093°15'3 5.8
2017-Oct-10 15:00N 30°11' W 093°18'6 5.6
2017-Oct-10 14:00N 30°06' W 093°20'3 5.9
2017-Oct-10 13:30N 30°04' W 093°21'0 0.7
2017-Oct-10 13:00N 30°04' W 093°22'0 0.0
2017-Oct-10 12:30N 30°04' W 093°22'0 0.0
2017-Oct-10 12:00N 30°04' W 093°22'0 0.0
2017-Oct-10 11:30N 30°04' W 093°22'0 0.0
2017-Oct-10 11:00N 30°04' W 093°22'0 0.0
2017-Oct-10 10:31N 30°04' W 093°22'0 0.0
2017-Oct-10 10:01N 30°04' W 093°22'0 0.0
2017-Oct-10 09:31N 30°04' W 093°22'0 0.0
2017-Oct-10 09:01N 30°04' W 093°22'0 0.0
2017-Oct-10 08:31N 30°04' W 093°22'0 0.0
2017-Oct-10 08:00N 30°04' W 093°22'0 0.0
2017-Oct-10 07:30N 30°04' W 093°22'0 0.0
2017-Oct-10 07:01N 30°04' W 093°22'0 0.3
2017-Oct-10 06:30N 30°04' W 093°22'1 1.1
2017-Oct-10 06:01N 30°04' W 093°21'0 0.1
2017-Oct-10 05:31N 30°04' W 093°21'0 0.0
2017-Oct-10 05:01N 30°04' W 093°21'0 0.0
2017-Oct-10 04:30N 30°04' W 093°21'0 0.0
2017-Oct-10 04:00N 30°04' W 093°21'0 0.0
2017-Oct-10 03:31N 30°04' W 093°21'0 0.2
2017-Oct-10 03:01N 30°04' W 093°21'0 0.3
2017-Oct-10 02:31N 30°04' W 093°21'0 0.5
2017-Oct-10 02:01N 30°04' W 093°21'0 0.0
2017-Oct-10 01:31N 30°04' W 093°21'0 0.0
2017-Oct-10 01:00N 30°04' W 093°21'0 0.0
2017-Oct-10 00:31N 30°04' W 093°21'0 0.0
2017-Oct-10 00:01N 30°04' W 093°21'0 0.0
2017-Oct-09 23:31N 30°04' W 093°21'0 0.0
2017-Oct-09 23:01N 30°04' W 093°21'0 0.0
2017-Oct-09 22:31N 30°04' W 093°21'0 0.9
2017-Oct-09 22:01N 30°04' W 093°22'0 0.0
2017-Oct-09 21:30N 30°04' W 093°22'0 0.0
2017-Oct-09 21:01N 30°04' W 093°22'0 0.0
2017-Oct-09 20:31N 30°04' W 093°22'0 0.0
2017-Oct-09 20:01N 30°04' W 093°22'0 0.9
2017-Oct-09 19:31N 30°04' W 093°21'0 0.1
2017-Oct-09 19:01N 30°04' W 093°21'0 0.0
2017-Oct-09 18:31N 30°04' W 093°21'0 0.0
2017-Oct-09 18:01N 30°04' W 093°21'0 0.0
2017-Oct-09 17:31N 30°04' W 093°21'0 0.1
2017-Oct-09 17:01N 30°04' W 093°21'0 0.1
2017-Oct-09 16:30N 30°04' W 093°21'0 0.0
2017-Oct-09 16:01N 30°04' W 093°21'0 0.0
2017-Oct-09 15:31N 30°04' W 093°21'0 0.0
2017-Oct-09 15:01N 30°04' W 093°21'0 0.0
2017-Oct-09 14:31N 30°04' W 093°21'  

Dump ship's entire track history